HomeShort term forecast

Short term forecast

Graphical weather forecast for the next 48 hours for Montreal:
Short term forecast
This weather forecast is automatically refreshed every 3 hours.

Hourly Experimental Forecast for the next 48 hours ®

Overall summary: Breezy starting later this afternoon, continuing until tomorrow morning, and rain this evening.

 Date & Hour   Temp   Feel   Baro   Hum   Speed & Bearing   Wind Gust   Precip.%   Precip.   Visibility   Cloud cover   Conditions 
 21/09/2018 - 15:00  22.8°C  23.1°C  1006.7 hPa  78%  21.7 km/h   55.3 km/h  9%  0.04 mm/h  16.1km  70%  Mostly Cloudy 
 21/09/2018 - 16:00  24.5°C  24.8°C  1004.7 hPa  72%  28.2 km/h   58.7 km/h  5%  0.03 mm/h  16.1km  45%  Breezy and Partly Cloudy 
 21/09/2018 - 17:00  25.1°C  25.5°C  1003.0 hPa  69%  32.5 km/h   62.6 km/h  4%  0.02 mm/h  16.1km  25%  Breezy and Partly Cloudy 
 21/09/2018 - 18:00  24.6°C  25.0°C  1001.9 hPa  70%  33.5 km/h   63.5 km/h  7%  0.15 mm/h  16.1km  26%  Windy and Partly Cloudy 
 21/09/2018 - 19:00  23.7°C  24.0°C  1001.1 hPa  73%  33.1 km/h   61.4 km/h  31%  0.80 mm/h  16.1km  37%  Light Rain and Breezy 
 21/09/2018 - 20:00  22.8°C  23.1°C  1000.8 hPa  77%  33.2 km/h   67.6 km/h  46%  1.24 mm/h  16.1km  58%  Light Rain and Windy 
 21/09/2018 - 21:00  21.8°C  22.2°C  1001.1 hPa  84%  33.3 km/h   67.5 km/h  33%  1.45 mm/h  14.9km  71%  Rain and Windy 
 21/09/2018 - 22:00  21.2°C  21.6°C  1001.9 hPa  87%  34.2 km/h   67.3 km/h  31%  0.60 mm/h  14.2km  65%  Windy and Mostly Cloudy 
 21/09/2018 - 23:00  20.9°C  21.3°C  1002.7 hPa  87%  33.9 km/h   67.6 km/h  26%  0.51 mm/h  13.5km  76%  Windy and Mostly Cloudy 
 22/09/2018 - 00:00  19.4°C  19.5°C  1004.3 hPa  82%  34.1 km/h   69.2 km/h  24%  0.30 mm/h  16.1km  65%  Windy and Mostly Cloudy 
 22/09/2018 - 01:00  17.7°C  17.7°C  1006.0 hPa  73%  33.4 km/h   65.9 km/h  17%  0.07 mm/h  16.1km  57%  Windy and Partly Cloudy 
 22/09/2018 - 02:00  15.7°C  15.7°C  1007.8 hPa  69%  31.9 km/h   61.0 km/h  13%  0.04 mm/h  16.1km  43%  Breezy and Partly Cloudy 
 22/09/2018 - 03:00  14.2°C  14.2°C  1010.2 hPa  69%  28.8 km/h   55.5 km/h  5%  0.01 mm/h  16.1km  37%  Breezy and Partly Cloudy 
 22/09/2018 - 04:00  13.2°C  13.2°C  1012.4 hPa  67%  25.6 km/h   47.1 km/h  0%  --  16.1km  30%  Breezy and Partly Cloudy 
 22/09/2018 - 05:00  12.1°C  12.1°C  1014.4 hPa  65%  23.4 km/h   41.4 km/h  0%  --  16.1km  23%  Clear 
 22/09/2018 - 06:00  10.8°C  10.8°C  1016.6 hPa  67%  20.2 km/h   37.1 km/h  0%  --  16.1km  19%  Clear 
 22/09/2018 - 07:00  9.7°C  7.2°C  1018.5 hPa  69%  18.1 km/h   33.4 km/h  0%  --  16.1km  17%  Clear 
 22/09/2018 - 08:00  9.3°C  6.9°C  1020.1 hPa  67%  16.9 km/h   29.7 km/h  0%  --  16.1km  14%  Clear 
 22/09/2018 - 09:00  9.9°C  7.8°C  1021.2 hPa  63%  15.4 km/h   25.5 km/h  0%  --  16.1km  10%  Clear 
 22/09/2018 - 10:00  11.2°C  11.2°C  1021.9 hPa  57%  14.7 km/h   21.4 km/h  0%  --  16.1km  6%  Clear 
 22/09/2018 - 11:00  12.6°C  12.6°C  1022.4 hPa  51%  14.5 km/h   18.5 km/h  2%  0.01 mm/h  16.1km  2%  Clear 
 22/09/2018 - 12:00  13.7°C  13.7°C  1022.6 hPa  48%  14.2 km/h   17.8 km/h  0%  --  16.1km  2%  Clear 
 22/09/2018 - 13:00  14.5°C  14.5°C  1022.6 hPa  46%  14.4 km/h   18.4 km/h  0%  --  16.1km  1%  Clear 
 22/09/2018 - 14:00  15.3°C  15.3°C  1022.4 hPa  43%  15.0 km/h   19.0 km/h  0%  --  16.1km  1%  Clear 
 22/09/2018 - 15:00  16.2°C  16.2°C  1022.2 hPa  42%  14.8 km/h   19.0 km/h  0%  --  16.1km  4%  Clear 
 22/09/2018 - 16:00  16.8°C  16.8°C  1021.9 hPa  40%  15.2 km/h   18.9 km/h  0%  --  16.1km  8%  Clear 
 22/09/2018 - 17:00  16.7°C  16.7°C  1021.7 hPa  40%  15.5 km/h   19.2 km/h  0%  --  16.1km  11%  Clear 
 22/09/2018 - 18:00  15.7°C  15.7°C  1022.0 hPa  44%  14.2 km/h   20.4 km/h  0%  --  16.1km  12%  Clear 
 22/09/2018 - 19:00  13.9°C  13.9°C  1022.4 hPa  50%  12.6 km/h   21.8 km/h  0%  --  16.1km  12%  Clear 
 22/09/2018 - 20:00  12.3°C  12.3°C  1022.8 hPa  56%  11.4 km/h   22.4 km/h  0%  --  16.1km  11%  Clear 
 22/09/2018 - 21:00  11.4°C  11.4°C  1022.9 hPa  60%  10.6 km/h   20.6 km/h  0%  --  16.1km  7%  Clear 
 22/09/2018 - 22:00  10.8°C  10.8°C  1023.0 hPa  62%  9.9 km/h   17.9 km/h  0%  --  16.1km  3%  Clear 
 22/09/2018 - 23:00  10.1°C  10.1°C  1023.0 hPa  64%  9.1 km/h   16.8 km/h  0%  --  16.1km  0%  Clear 
 23/09/2018 - 00:00  9.7°C  8.3°C  1022.9 hPa  66%  9.6 km/h   19.1 km/h  0%  --  16.1km  0%  Clear 
 23/09/2018 - 01:00  9.2°C  7.7°C  1022.7 hPa  67%  10.0 km/h   23.2 km/h  0%  --  16.1km  0%  Clear 
 23/09/2018 - 02:00  9.0°C  7.5°C  1022.7 hPa  66%  9.5 km/h   18.5 km/h  0%  --  16.1km  0%  Clear 
 23/09/2018 - 03:00  8.5°C  6.8°C  1022.6 hPa  69%  10.1 km/h   21.9 km/h  0%  --  16.1km  1%  Clear 
 23/09/2018 - 04:00  7.4°C  5.2°C  1022.2 hPa  74%  11.5 km/h   29.8 km/h  0%  --  16.1km  2%  Clear 
 23/09/2018 - 05:00  8.0°C  5.9°C  1022.5 hPa  72%  11.6 km/h   28.7 km/h  3%  0.01 mm/h  16.1km  3%  Clear 
 23/09/2018 - 06:00  7.9°C  5.7°C  1022.7 hPa  74%  12.6 km/h   30.2 km/h  0%  --  16.1km  3%  Clear 
 23/09/2018 - 07:00  7.9°C  5.6°C  1023.1 hPa  75%  13.6 km/h   30.8 km/h  0%  --  16.1km  3%  Clear 
 23/09/2018 - 08:00  8.4°C  6.1°C  1023.5 hPa  75%  14.4 km/h   30.4 km/h  0%  --  16.1km  9%  Clear 
 23/09/2018 - 09:00  9.3°C  7.2°C  1024.0 hPa  73%  14.4 km/h   28.7 km/h  2%  0.01 mm/h  16.1km  26%  Partly Cloudy 
 23/09/2018 - 10:00  10.8°C  10.8°C  1024.3 hPa  68%  14.1 km/h   25.8 km/h  3%  0.02 mm/h  16.1km  49%  Partly Cloudy 
 23/09/2018 - 11:00  12.1°C  12.1°C  1024.6 hPa  64%  14.0 km/h   23.0 km/h  4%  0.03 mm/h  16.1km  65%  Mostly Cloudy 
 23/09/2018 - 12:00  13.2°C  13.2°C  1024.8 hPa  62%  13.6 km/h   20.5 km/h  4%  0.03 mm/h  16.1km  67%  Mostly Cloudy 
 23/09/2018 - 13:00  13.8°C  13.8°C  1024.9 hPa  61%  13.0 km/h   18.3 km/h  3%  0.01 mm/h  16.1km  68%  Mostly Cloudy 
 23/09/2018 - 14:00  14.6°C  14.6°C  1025.1 hPa  59%  13.0 km/h   16.4 km/h  2%  0.01 mm/h  16.1km  67%  Mostly Cloudy 
Test

 

Past weather and reports

Past weatherFind in this section the past weather conditions, weather archive, graphics, reports and statistics.

Current conditions

Current weather condition for MontrealAll you need to know about the current weather conditions for Montreal. Weather data is updated every 10 minutes.

Weather forecast

Current Montreal weatherSince 2004, celinium.com website has provided accurate weather forecast for Montreal's island.